KMLJ/MLJ METAR and TAF weather

Enter ICAO airport designator
Station Type Date Time Source
KMLJ METAR 2020/09/20 00:17 UTC NOAA

KMLJ 200017Z AUTO 08005KT 10SM CLR 19/16 A3019 RMK AO2


Station Type Date Time Source
KMLJ Decoded METAR 2020/09/20 00:17 UTC NOAA

Milledgeville, Baldwin County Airport, GA, United States (KMLJ) 33-09-15N 083-14-26W
Sep 19, 2020 - 08:17 PM EDT / 2020.09.20 0017 UTC
Wind: from the E (080 degrees) at 6 MPH (5 KT):0
Visibility: 10 mile(s):0
Sky conditions: clear
Temperature: 66 F (19 C)
Dew Point: 60 F (16 C)
Relative Humidity: 82%
Pressure (altimeter): 30.19 in. Hg (1022 hPa)
ob: KMLJ 200017Z AUTO 08005KT 10SM CLR 19/16 A3019 RMK AO2
cycle: 0

Station Type Date Time Source
KMLJ TAF UTC NOAA

Error!

Example: see airport list